Monday, December 5, 2016, 11:34 AM EST

KGED, Georgetown Sussex Co Airport

Location: Georgetown, DE, United States Lat: 38.683
Local Time: 11:34 AM EST (16:34 GMT) Lon: -75.367
Time Zone: US/Eastern Elev: 52 ft

Show me the last for .
Show Decoded

2016-12-05 11:24 METAR KGED 051624Z AUTO 31008KT 10SM BKN011 OVC015 08/06 A3002 RMK AO2 CIG
                 008V013 T00830061 =
2016-12-05 10:54 METAR KGED 051554Z AUTO 30007KT 10SM OVC008 08/06 A3002 RMK AO2 CIG 007V013
                 SLP166 T00830061 =
2016-12-05 10:22 METAR KGED 051522Z AUTO 29007KT 10SM OVC006 08/06 A3002 RMK AO2 CIG 003V011
                 T00780061 =
2016-12-05 10:07 METAR KGED 051507Z AUTO 29007KT 10SM OVC004 07/06 A3002 RMK AO2 T00720061 =
2016-12-05 09:54 METAR KGED 051454Z AUTO 28007KT 9SM OVC003 07/06 A3002 RMK AO2 SLP167 T00720061
                 50004 =
2016-12-05 09:44 METAR KGED 051444Z AUTO VRB04KT 5SM BR OVC003 07/06 A3002 RMK AO2 T00720061 =
2016-12-05 09:33 METAR KGED 051433Z AUTO 28005KT 4SM BR OVC004 07/06 A3003 RMK AO2 T00670061 =
2016-12-05 08:54 METAR KGED 051354Z AUTO 31003KT 7SM BKN007 06/06 A3003 RMK AO2 CIG 004V010
                 SLP169 T00610056 =
2016-12-05 08:02 METAR KGED 051302Z AUTO 00000KT 6SM BR FEW004 BKN055 06/05 A3001 RMK AO2
                 T00610050 $ =
2016-12-05 07:54 METAR KGED 051254Z AUTO 00000KT 6SM BR BKN055 06/05 A3001 RMK AO2 SLP164
                 T00610050 $ =
2016-12-05 07:31 METAR KGED 051231Z AUTO 00000KT 6SM BR FEW004 FEW027 OVC055 06/05 A3001 RMK AO2
                 T00560050 $ =
2016-12-05 07:24 METAR KGED 051224Z AUTO 00000KT 6SM BR FEW027 OVC055 06/05 A3001 RMK AO2
                 T00560050 $ =
2016-12-05 07:01 METAR KGED 051201Z AUTO 00000KT 8SM SCT005 OVC027 06/05 A3001 RMK AO2 T00560050
                 $ =
2016-12-05 06:54 METAR KGED 051154Z AUTO 00000KT 7SM BKN005 OVC027 06/05 A3001 RMK AO2 SLP163
                 60027 70030 T00560050 10056 20039 58009 $ =
2016-12-05 06:34 METAR KGED 051134Z AUTO 19003KT 4SM BR BKN004 BKN029 OVC042 06/05 A3002 RMK AO2
                 T00560050 $ =
2016-12-05 05:54 METAR KGED 051054Z AUTO 19005KT 4SM BR FEW004 SCT010 OVC046 05/04 A3003 RMK AO2
                 RAE37 SLP167 P0002 T00500044 TSNO $ =
2016-12-05 05:45 METAR KGED 051045Z AUTO 20004KT 5SM BR SCT004 SCT010 OVC046 05/04 A3003 RMK AO2
                 RAE37 P0002 T00500044 TSNO $ =
2016-12-05 05:37 METAR KGED 051037Z AUTO 19004KT 5SM BR SCT004 BKN016 OVC046 05/04 A3003 RMK AO2
                 RAE37 P0001 T00500044 TSNO $ =
2016-12-05 05:29 METAR KGED 051029Z AUTO 23003KT 6SM -RA BR SCT004 BKN014 OVC040 05/04 A3004 RMK
                 AO2 P0001 T00500044 TSNO $ =
2016-12-05 04:54 METAR KGED 050954Z AUTO 23003KT 3SM -RA BR FEW004 OVC015 05/04 A3004 RMK AO2
                 SLP172 P0008 T00500044 $ =
2016-12-05 04:46 METAR KGED 050946Z AUTO 26003KT 3SM -RA BR FEW010 OVC015 05/04 A3005 RMK AO2
                 P0007 T00500044 $ =
2016-12-05 03:59 METAR KGED 050859Z AUTO 27003KT 4SM -RA BR FEW007 BKN013 OVC042 05/04 A3005 RMK
                 AO2 P0000 T00500044 $ =
2016-12-05 03:54 METAR KGED 050854Z AUTO 27003KT 5SM -RA BR SCT013 BKN034 OVC042 05/04 A3005 RMK
                 AO2 SLP174 P0007 60017 T00500039 56019 $ =
2016-12-05 02:54 METAR KGED 050754Z AUTO 16004KT 4SM -RA BR OVC043 04/04 A3005 RMK AO2 SLP175
                 P0005 T00440039 $ =
2016-12-05 01:54 METAR KGED 050654Z AUTO 16004KT 6SM -RA BR OVC055 04/03 A3007 RMK AO2 SLP183
                 P0005 T00440033 $ =
2016-12-05 00:54 METAR KGED 050554Z AUTO 17005KT 9SM -RA BKN050 OVC070 04/03 A3010 RMK AO2 SLP193
                 P0002 60003 T00440028 10056 20044 58024 $ =
2016-12-04 23:54 METAR KGED 050454Z AUTO 18005KT 10SM -RA BKN065 OVC080 04/02 A3013 RMK AO2 RAB24
                 SLP203 P0001 T00440022 400940011 $ =
2016-12-04 22:54 METAR KGED 050354Z AUTO 20004KT 10SM OVC065 06/01 A3017 RMK AO2 SLP216 T00560011
                 $ =
2016-12-04 21:54 METAR KGED 050254Z AUTO 19003KT 10SM OVC075 06/01 A3017 RMK AO2 SLP217 T00560006
                 57008 $ =
2016-12-04 20:54 METAR KGED 050154Z AUTO 20004KT 10SM OVC080 06/01 A3018 RMK AO2 SLP220 T00560006
                 $ =
2016-12-04 19:54 METAR KGED 050054Z AUTO 00000KT 10SM SCT080 06/01 A3019 RMK AO2 SLP222 T00560006
                 $ =
2016-12-04 18:54 METAR KGED 042354Z AUTO 00000KT 10SM CLR 06/00 A3019 RMK AO2 SLP225 T00560000
                 10094 20044 $ =
2016-12-04 17:54 METAR KGED 042254Z AUTO 00000KT 10SM CLR 06/01 A3021 RMK AO2 SLP230 T00560006 $
                 =
2016-12-04 16:54 METAR KGED 042154Z AUTO 00000KT 10SM CLR 08/M01 A3021 RMK AO2 SLP232 T00781011 =
2016-12-04 15:54 METAR KGED 042054Z AUTO 25004KT 10SM CLR 08/M01 A3023 RMK AO2 SLP236 T00781011
                 53002 =
2016-12-04 14:54 METAR KGED 041954Z AUTO 28005KT 10SM CLR 08/M02 A3022 RMK AO2 SLP232 T00831022 =
2016-12-04 13:54 METAR KGED 041854Z AUTO 30005KT 10SM CLR 08/M02 A3022 RMK AO2 SLP233 T00831022 =
2016-12-04 12:54 METAR KGED 041754Z AUTO 00000KT 10SM CLR 09/M02 A3022 RMK AO2 SLP234 T00891017
                 10094 20022 56019 =
2016-12-04 11:54 METAR KGED 041654Z AUTO 10SM CLR 09/M02 A3023 RMK AO2 SLP237 T00891022 TSNO =

Support USWX by starting your Amazon purchase here.